sensor_id;sensor_type;location;lat;lon;timestamp;temperature;humidity
10459;DHT22;5277;48.722;8.736;2022-10-26T00:00:26;12.10;99.90
10459;DHT22;5277;48.722;8.736;2022-10-26T00:02:55;12.10;99.90
10459;DHT22;5277;48.722;8.736;2022-10-26T00:05:22;12.10;99.90
10459;DHT22;5277;48.722;8.736;2022-10-26T00:07:48;12.10;99.90
10459;DHT22;5277;48.722;8.736;2022-10-26T00:10:14;12.10;99.90
10459;DHT22;5277;48.722;8.736;2022-10-26T00:12:40;12.10;99.90
10459;DHT22;5277;48.722;8.736;2022-10-26T00:15:06;12.10;99.90
10459;DHT22;5277;48.722;8.736;2022-10-26T00:17:32;12.20;99.90
10459;DHT22;5277;48.722;8.736;2022-10-26T00:19:58;12.10;99.90
10459;DHT22;5277;48.722;8.736;2022-10-26T00:22:25;12.10;99.90
10459;DHT22;5277;48.722;8.736;2022-10-26T00:24:51;12.20;99.90
10459;DHT22;5277;48.722;8.736;2022-10-26T00:27:17;12.20;99.90
10459;DHT22;5277;48.722;8.736;2022-10-26T00:29:43;12.20;99.90
10459;DHT22;5277;48.722;8.736;2022-10-26T00:32:08;12.20;99.90
10459;DHT22;5277;48.722;8.736;2022-10-26T00:34:34;12.20;99.90
10459;DHT22;5277;48.722;8.736;2022-10-26T00:37:00;12.20;99.90
10459;DHT22;5277;48.722;8.736;2022-10-26T00:39:25;12.20;99.90
10459;DHT22;5277;48.722;8.736;2022-10-26T00:41:51;12.20;99.90
10459;DHT22;5277;48.722;8.736;2022-10-26T00:44:54;12.20;99.90
10459;DHT22;5277;48.722;8.736;2022-10-26T00:47:30;12.20;99.90
10459;DHT22;5277;48.722;8.736;2022-10-26T00:50:00;12.20;99.90
10459;DHT22;5277;48.722;8.736;2022-10-26T00:52:27;12.30;99.90
10459;DHT22;5277;48.722;8.736;2022-10-26T00:54:54;12.20;99.90
10459;DHT22;5277;48.722;8.736;2022-10-26T00:57:20;12.20;99.90
10459;DHT22;5277;48.722;8.736;2022-10-26T00:59:46;12.20;99.90
10459;DHT22;5277;48.722;8.736;2022-10-26T01:02:12;12.20;99.90
10459;DHT22;5277;48.722;8.736;2022-10-26T01:04:38;12.20;99.90
10459;DHT22;5277;48.722;8.736;2022-10-26T01:07:05;12.30;99.90
10459;DHT22;5277;48.722;8.736;2022-10-26T01:09:32;12.30;99.90
10459;DHT22;5277;48.722;8.736;2022-10-26T01:11:58;12.30;99.90
10459;DHT22;5277;48.722;8.736;2022-10-26T01:14:26;12.30;99.90
10459;DHT22;5277;48.722;8.736;2022-10-26T01:22:41;12.30;99.90
10459;DHT22;5277;48.722;8.736;2022-10-26T01:27:55;12.40;99.90
10459;DHT22;5277;48.722;8.736;2022-10-26T01:41:12;12.40;99.90
10459;DHT22;5277;48.722;8.736;2022-10-26T01:43:55;12.40;99.90
10459;DHT22;5277;48.722;8.736;2022-10-26T01:46:23;12.40;99.90
10459;DHT22;5277;48.722;8.736;2022-10-26T01:48:54;12.40;99.90
10459;DHT22;5277;48.722;8.736;2022-10-26T01:51:23;12.30;99.90
10459;DHT22;5277;48.722;8.736;2022-10-26T01:53:49;12.40;99.90
10459;DHT22;5277;48.722;8.736;2022-10-26T01:56:25;12.40;99.90
10459;DHT22;5277;48.722;8.736;2022-10-26T02:01:58;12.30;99.90
10459;DHT22;5277;48.722;8.736;2022-10-26T02:07:02;12.30;99.90
10459;DHT22;5277;48.722;8.736;2022-10-26T02:09:59;12.30;99.90
10459;DHT22;5277;48.722;8.736;2022-10-26T02:12:49;12.30;99.90
10459;DHT22;5277;48.722;8.736;2022-10-26T02:15:21;12.20;99.90
10459;DHT22;5277;48.722;8.736;2022-10-26T02:17:54;12.20;99.90
10459;DHT22;5277;48.722;8.736;2022-10-26T02:20:26;12.20;99.90
10459;DHT22;5277;48.722;8.736;2022-10-26T02:22:54;12.20;99.90
10459;DHT22;5277;48.722;8.736;2022-10-26T02:25:27;12.20;99.90
10459;DHT22;5277;48.722;8.736;2022-10-26T02:27:57;12.20;99.90
10459;DHT22;5277;48.722;8.736;2022-10-26T02:30:24;12.20;99.90
10459;DHT22;5277;48.722;8.736;2022-10-26T02:32:53;12.20;99.90
10459;DHT22;5277;48.722;8.736;2022-10-26T02:35:27;12.10;99.90
10459;DHT22;5277;48.722;8.736;2022-10-26T02:37:56;12.20;99.90
10459;DHT22;5277;48.722;8.736;2022-10-26T02:40:26;12.20;99.90
10459;DHT22;5277;48.722;8.736;2022-10-26T02:42:53;12.20;99.90
10459;DHT22;5277;48.722;8.736;2022-10-26T02:45:24;12.10;99.90
10459;DHT22;5277;48.722;8.736;2022-10-26T02:47:51;12.10;99.90
10459;DHT22;5277;48.722;8.736;2022-10-26T02:50:19;12.10;99.90
10459;DHT22;5277;48.722;8.736;2022-10-26T02:53:13;12.10;99.90
10459;DHT22;5277;48.722;8.736;2022-10-26T02:55:47;12.10;99.90
10459;DHT22;5277;48.722;8.736;2022-10-26T02:58:36;12.10;99.90
10459;DHT22;5277;48.722;8.736;2022-10-26T03:01:03;12.20;99.90
10459;DHT22;5277;48.722;8.736;2022-10-26T03:03:29;12.10;99.90
10459;DHT22;5277;48.722;8.736;2022-10-26T03:05:54;12.20;99.90
10459;DHT22;5277;48.722;8.736;2022-10-26T03:08:20;12.20;99.90
10459;DHT22;5277;48.722;8.736;2022-10-26T03:10:46;12.20;99.90
10459;DHT22;5277;48.722;8.736;2022-10-26T03:13:12;12.20;99.90
10459;DHT22;5277;48.722;8.736;2022-10-26T03:15:39;12.20;99.90
10459;DHT22;5277;48.722;8.736;2022-10-26T03:18:04;12.20;99.90
10459;DHT22;5277;48.722;8.736;2022-10-26T03:20:30;12.20;99.90
10459;DHT22;5277;48.722;8.736;2022-10-26T03:22:56;12.20;99.90
10459;DHT22;5277;48.722;8.736;2022-10-26T03:25:26;12.20;99.90
10459;DHT22;5277;48.722;8.736;2022-10-26T03:28:00;12.30;99.90
10459;DHT22;5277;48.722;8.736;2022-10-26T03:30:27;12.30;99.90
10459;DHT22;5277;48.722;8.736;2022-10-26T03:32:53;12.30;99.90
10459;DHT22;5277;48.722;8.736;2022-10-26T03:35:18;12.30;99.90
10459;DHT22;5277;48.722;8.736;2022-10-26T03:37:44;12.30;99.90
10459;DHT22;5277;48.722;8.736;2022-10-26T03:40:10;12.30;99.90
10459;DHT22;5277;48.722;8.736;2022-10-26T03:42:36;12.30;99.90
10459;DHT22;5277;48.722;8.736;2022-10-26T03:45:03;12.40;99.90
10459;DHT22;5277;48.722;8.736;2022-10-26T03:47:29;12.30;99.90
10459;DHT22;5277;48.722;8.736;2022-10-26T03:49:54;12.30;99.90
10459;DHT22;5277;48.722;8.736;2022-10-26T03:52:20;12.40;99.90
10459;DHT22;5277;48.722;8.736;2022-10-26T03:54:48;12.40;99.90
10459;DHT22;5277;48.722;8.736;2022-10-26T03:57:14;12.40;99.90
10459;DHT22;5277;48.722;8.736;2022-10-26T03:59:39;12.30;99.90
10459;DHT22;5277;48.722;8.736;2022-10-26T04:02:05;12.40;99.90
10459;DHT22;5277;48.722;8.736;2022-10-26T04:04:31;12.40;99.90
10459;DHT22;5277;48.722;8.736;2022-10-26T04:06:57;12.40;99.90
10459;DHT22;5277;48.722;8.736;2022-10-26T04:09:22;12.40;99.90
10459;DHT22;5277;48.722;8.736;2022-10-26T04:11:48;12.40;99.90
10459;DHT22;5277;48.722;8.736;2022-10-26T04:14:14;12.50;99.90
10459;DHT22;5277;48.722;8.736;2022-10-26T04:16:40;12.40;99.90
10459;DHT22;5277;48.722;8.736;2022-10-26T04:19:05;12.40;99.90
10459;DHT22;5277;48.722;8.736;2022-10-26T04:21:31;12.40;99.90
10459;DHT22;5277;48.722;8.736;2022-10-26T04:24:00;12.50;99.90
10459;DHT22;5277;48.722;8.736;2022-10-26T04:26:26;12.50;99.90
10459;DHT22;5277;48.722;8.736;2022-10-26T04:28:52;12.40;99.90
10459;DHT22;5277;48.722;8.736;2022-10-26T04:31:17;12.40;99.90
10459;DHT22;5277;48.722;8.736;2022-10-26T04:33:43;12.40;99.90
10459;DHT22;5277;48.722;8.736;2022-10-26T04:36:09;12.30;99.90
10459;DHT22;5277;48.722;8.736;2022-10-26T04:38:34;12.40;99.90
10459;DHT22;5277;48.722;8.736;2022-10-26T04:41:00;12.40;99.90
10459;DHT22;5277;48.722;8.736;2022-10-26T04:43:26;12.40;99.90
10459;DHT22;5277;48.722;8.736;2022-10-26T04:45:56;12.50;99.90
10459;DHT22;5277;48.722;8.736;2022-10-26T04:48:22;12.50;99.90
10459;DHT22;5277;48.722;8.736;2022-10-26T04:50:47;12.50;99.90
10459;DHT22;5277;48.722;8.736;2022-10-26T04:53:13;12.50;99.90
10459;DHT22;5277;48.722;8.736;2022-10-26T04:55:39;12.50;99.90
10459;DHT22;5277;48.722;8.736;2022-10-26T04:58:04;12.40;99.90
10459;DHT22;5277;48.722;8.736;2022-10-26T05:00:31;12.40;99.90
10459;DHT22;5277;48.722;8.736;2022-10-26T05:03:05;12.40;99.90
10459;DHT22;5277;48.722;8.736;2022-10-26T05:05:33;12.50;99.90
10459;DHT22;5277;48.722;8.736;2022-10-26T05:07:59;12.50;99.90
10459;DHT22;5277;48.722;8.736;2022-10-26T05:10:26;12.50;99.90
10459;DHT22;5277;48.722;8.736;2022-10-26T05:12:53;12.60;99.90
10459;DHT22;5277;48.722;8.736;2022-10-26T05:15:20;12.60;99.90
10459;DHT22;5277;48.722;8.736;2022-10-26T05:17:46;12.60;99.90
10459;DHT22;5277;48.722;8.736;2022-10-26T05:20:12;12.50;99.90
10459;DHT22;5277;48.722;8.736;2022-10-26T05:22:45;12.60;99.90
10459;DHT22;5277;48.722;8.736;2022-10-26T05:25:16;12.60;99.90
10459;DHT22;5277;48.722;8.736;2022-10-26T05:27:42;12.60;99.90
10459;DHT22;5277;48.722;8.736;2022-10-26T05:30:08;12.60;99.90
10459;DHT22;5277;48.722;8.736;2022-10-26T05:32:34;12.60;99.90
10459;DHT22;5277;48.722;8.736;2022-10-26T05:34:59;12.60;99.90
10459;DHT22;5277;48.722;8.736;2022-10-26T05:37:27;12.60;99.90
10459;DHT22;5277;48.722;8.736;2022-10-26T05:39:54;12.70;99.90
10459;DHT22;5277;48.722;8.736;2022-10-26T05:42:19;12.70;99.90
10459;DHT22;5277;48.722;8.736;2022-10-26T05:44:45;12.70;99.90
10459;DHT22;5277;48.722;8.736;2022-10-26T05:47:14;12.70;99.90
10459;DHT22;5277;48.722;8.736;2022-10-26T05:49:39;12.70;99.90
10459;DHT22;5277;48.722;8.736;2022-10-26T05:52:05;12.70;99.90
10459;DHT22;5277;48.722;8.736;2022-10-26T05:54:31;12.70;99.90
10459;DHT22;5277;48.722;8.736;2022-10-26T05:56:57;12.70;99.90
10459;DHT22;5277;48.722;8.736;2022-10-26T05:59:23;12.70;99.90
10459;DHT22;5277;48.722;8.736;2022-10-26T06:02:27;12.80;99.90
10459;DHT22;5277;48.722;8.736;2022-10-26T06:05:02;12.80;99.90
10459;DHT22;5277;48.722;8.736;2022-10-26T06:07:29;12.80;99.90
10459;DHT22;5277;48.722;8.736;2022-10-26T06:09:55;12.70;99.90
10459;DHT22;5277;48.722;8.736;2022-10-26T06:12:21;12.70;99.90
10459;DHT22;5277;48.722;8.736;2022-10-26T06:14:47;12.70;99.90
10459;DHT22;5277;48.722;8.736;2022-10-26T06:17:23;12.70;99.90
10459;DHT22;5277;48.722;8.736;2022-10-26T06:28:37;12.70;99.90
10459;DHT22;5277;48.722;8.736;2022-10-26T06:31:06;12.80;99.90
10459;DHT22;5277;48.722;8.736;2022-10-26T06:33:31;12.80;99.90
10459;DHT22;5277;48.722;8.736;2022-10-26T06:36:25;12.80;99.90
10459;DHT22;5277;48.722;8.736;2022-10-26T06:38:58;12.90;99.90
10459;DHT22;5277;48.722;8.736;2022-10-26T06:41:35;12.90;99.90
10459;DHT22;5277;48.722;8.736;2022-10-26T06:44:30;12.90;99.90
10459;DHT22;5277;48.722;8.736;2022-10-26T06:47:05;13.00;99.90
10459;DHT22;5277;48.722;8.736;2022-10-26T06:53:01;12.90;99.90
10459;DHT22;5277;48.722;8.736;2022-10-26T06:55:38;12.90;99.90
10459;DHT22;5277;48.722;8.736;2022-10-26T06:58:10;13.00;99.90
10459;DHT22;5277;48.722;8.736;2022-10-26T07:03:54;13.10;99.90
10459;DHT22;5277;48.722;8.736;2022-10-26T07:06:20;13.10;99.90
10459;DHT22;5277;48.722;8.736;2022-10-26T07:08:45;13.20;99.90
10459;DHT22;5277;48.722;8.736;2022-10-26T07:11:11;13.20;99.90
10459;DHT22;5277;48.722;8.736;2022-10-26T07:13:37;13.20;99.90
10459;DHT22;5277;48.722;8.736;2022-10-26T07:16:02;13.20;99.90
10459;DHT22;5277;48.722;8.736;2022-10-26T07:18:28;13.20;99.90
10459;DHT22;5277;48.722;8.736;2022-10-26T07:20:54;13.20;99.90
10459;DHT22;5277;48.722;8.736;2022-10-26T07:23:19;13.20;99.90
10459;DHT22;5277;48.722;8.736;2022-10-26T07:25:47;13.20;99.90
10459;DHT22;5277;48.722;8.736;2022-10-26T07:28:13;13.30;99.90
10459;DHT22;5277;48.722;8.736;2022-10-26T07:30:39;13.20;99.90
10459;DHT22;5277;48.722;8.736;2022-10-26T07:33:10;13.30;99.90
10459;DHT22;5277;48.722;8.736;2022-10-26T07:35:36;13.30;99.90
10459;DHT22;5277;48.722;8.736;2022-10-26T07:38:02;13.40;99.90
10459;DHT22;5277;48.722;8.736;2022-10-26T07:40:28;13.40;99.90
10459;DHT22;5277;48.722;8.736;2022-10-26T07:42:59;13.40;99.90
10459;DHT22;5277;48.722;8.736;2022-10-26T07:45:26;13.50;99.90
10459;DHT22;5277;48.722;8.736;2022-10-26T07:47:52;13.50;99.90
10459;DHT22;5277;48.722;8.736;2022-10-26T07:50:18;13.50;99.90
10459;DHT22;5277;48.722;8.736;2022-10-26T07:52:44;13.60;99.90
10459;DHT22;5277;48.722;8.736;2022-10-26T07:55:10;13.70;99.90
10459;DHT22;5277;48.722;8.736;2022-10-26T07:57:37;13.70;99.90
10459;DHT22;5277;48.722;8.736;2022-10-26T08:00:04;13.70;99.90
10459;DHT22;5277;48.722;8.736;2022-10-26T08:02:31;13.70;99.90
10459;DHT22;5277;48.722;8.736;2022-10-26T08:04:56;13.80;99.90
10459;DHT22;5277;48.722;8.736;2022-10-26T08:07:22;13.80;99.90
10459;DHT22;5277;48.722;8.736;2022-10-26T08:09:50;13.90;99.90
10459;DHT22;5277;48.722;8.736;2022-10-26T08:12:16;14.00;99.90
10459;DHT22;5277;48.722;8.736;2022-10-26T08:14:42;14.00;99.90
10459;DHT22;5277;48.722;8.736;2022-10-26T08:17:08;14.00;99.90
10459;DHT22;5277;48.722;8.736;2022-10-26T08:19:34;14.10;99.90
10459;DHT22;5277;48.722;8.736;2022-10-26T08:22:00;14.20;99.90
10459;DHT22;5277;48.722;8.736;2022-10-26T08:24:25;14.20;99.90
10459;DHT22;5277;48.722;8.736;2022-10-26T08:26:51;14.30;99.90
10459;DHT22;5277;48.722;8.736;2022-10-26T08:29:17;14.40;99.90
10459;DHT22;5277;48.722;8.736;2022-10-26T08:31:42;14.50;99.90
10459;DHT22;5277;48.722;8.736;2022-10-26T08:34:08;14.50;99.90
10459;DHT22;5277;48.722;8.736;2022-10-26T08:36:34;14.60;99.90
10459;DHT22;5277;48.722;8.736;2022-10-26T08:38:59;14.70;99.90
10459;DHT22;5277;48.722;8.736;2022-10-26T08:41:44;14.80;99.90
10459;DHT22;5277;48.722;8.736;2022-10-26T08:47:05;15.00;99.90
10459;DHT22;5277;48.722;8.736;2022-10-26T08:50:02;15.10;99.90
10459;DHT22;5277;48.722;8.736;2022-10-26T08:52:36;15.20;99.90
10459;DHT22;5277;48.722;8.736;2022-10-26T08:58:00;15.50;99.90
10459;DHT22;5277;48.722;8.736;2022-10-26T09:00:29;15.60;99.90
10459;DHT22;5277;48.722;8.736;2022-10-26T09:02:55;15.70;99.90
10459;DHT22;5277;48.722;8.736;2022-10-26T09:05:40;15.80;99.90
10459;DHT22;5277;48.722;8.736;2022-10-26T09:11:02;16.00;99.90
10459;DHT22;5277;48.722;8.736;2022-10-26T09:13:57;16.10;99.90
10459;DHT22;5277;48.722;8.736;2022-10-26T09:16:32;16.10;99.90
10459;DHT22;5277;48.722;8.736;2022-10-26T09:19:27;16.10;99.90
10459;DHT22;5277;48.722;8.736;2022-10-26T09:22:06;16.20;99.90
10459;DHT22;5277;48.722;8.736;2022-10-26T09:24:43;16.20;99.90
10459;DHT22;5277;48.722;8.736;2022-10-26T09:29:41;16.40;99.90
10459;DHT22;5277;48.722;8.736;2022-10-26T09:32:31;16.60;99.90
10459;DHT22;5277;48.722;8.736;2022-10-26T09:35:13;16.70;99.90
10459;DHT22;5277;48.722;8.736;2022-10-26T09:37:44;16.90;99.90
10459;DHT22;5277;48.722;8.736;2022-10-26T09:40:34;17.00;99.90
10459;DHT22;5277;48.722;8.736;2022-10-26T09:44:07;17.10;99.90
10459;DHT22;5277;48.722;8.736;2022-10-26T09:46:21;17.20;99.90
10459;DHT22;5277;48.722;8.736;2022-10-26T09:48:51;17.30;99.90
10459;DHT22;5277;48.722;8.736;2022-10-26T09:51:18;17.40;99.90
10459;DHT22;5277;48.722;8.736;2022-10-26T09:53:45;17.60;99.90
10459;DHT22;5277;48.722;8.736;2022-10-26T09:56:13;17.70;99.90
10459;DHT22;5277;48.722;8.736;2022-10-26T09:58:43;17.70;99.90
10459;DHT22;5277;48.722;8.736;2022-10-26T10:04:29;17.90;99.90
10459;DHT22;5277;48.722;8.736;2022-10-26T10:09:27;18.20;99.90
10459;DHT22;5277;48.722;8.736;2022-10-26T10:11:55;18.40;99.90
10459;DHT22;5277;48.722;8.736;2022-10-26T10:14:23;18.60;99.90
10459;DHT22;5277;48.722;8.736;2022-10-26T10:17:18;18.80;99.90
10459;DHT22;5277;48.722;8.736;2022-10-26T10:19:45;19.00;99.90
10459;DHT22;5277;48.722;8.736;2022-10-26T10:22:23;19.10;99.90
10459;DHT22;5277;48.722;8.736;2022-10-26T10:24:57;19.20;99.90
10459;DHT22;5277;48.722;8.736;2022-10-26T10:27:24;19.20;99.90
10459;DHT22;5277;48.722;8.736;2022-10-26T10:29:52;19.30;99.90
10459;DHT22;5277;48.722;8.736;2022-10-26T10:32:26;19.40;99.90
10459;DHT22;5277;48.722;8.736;2022-10-26T10:34:54;19.40;99.90
10459;DHT22;5277;48.722;8.736;2022-10-26T10:37:31;19.40;99.90
10459;DHT22;5277;48.722;8.736;2022-10-26T10:40:08;19.60;99.90
10459;DHT22;5277;48.722;8.736;2022-10-26T10:42:40;19.70;99.90
10459;DHT22;5277;48.722;8.736;2022-10-26T10:51:01;20.10;99.90
10459;DHT22;5277;48.722;8.736;2022-10-26T10:53:49;20.10;99.90
10459;DHT22;5277;48.722;8.736;2022-10-26T10:56:30;20.10;99.90
10459;DHT22;5277;48.722;8.736;2022-10-26T11:04:47;20.20;99.90
10459;DHT22;5277;48.722;8.736;2022-10-26T11:07:17;20.20;99.90
10459;DHT22;5277;48.722;8.736;2022-10-26T11:09:45;20.30;99.90
10459;DHT22;5277;48.722;8.736;2022-10-26T11:12:21;20.40;99.90
10459;DHT22;5277;48.722;8.736;2022-10-26T11:15:02;20.40;99.90
10459;DHT22;5277;48.722;8.736;2022-10-26T11:17:35;20.40;99.90
10459;DHT22;5277;48.722;8.736;2022-10-26T11:20:12;20.30;99.90
10459;DHT22;5277;48.722;8.736;2022-10-26T11:25:23;20.40;99.90
10459;DHT22;5277;48.722;8.736;2022-10-26T11:30:30;20.50;99.90
10459;DHT22;5277;48.722;8.736;2022-10-26T11:33:10;20.50;99.90
10459;DHT22;5277;48.722;8.736;2022-10-26T11:38:18;20.60;99.90
10459;DHT22;5277;48.722;8.736;2022-10-26T11:40:54;20.60;99.90
10459;DHT22;5277;48.722;8.736;2022-10-26T11:46:17;20.60;99.90
10459;DHT22;5277;48.722;8.736;2022-10-26T11:51:35;20.70;99.90
10459;DHT22;5277;48.722;8.736;2022-10-26T11:54:21;20.60;99.90
10459;DHT22;5277;48.722;8.736;2022-10-26T11:56:52;20.60;99.90
10459;DHT22;5277;48.722;8.736;2022-10-26T11:59:29;20.60;99.90
10459;DHT22;5277;48.722;8.736;2022-10-26T12:02:23;20.50;99.90
10459;DHT22;5277;48.722;8.736;2022-10-26T12:05:04;20.40;99.90
10459;DHT22;5277;48.722;8.736;2022-10-26T12:07:33;20.20;99.90
10459;DHT22;5277;48.722;8.736;2022-10-26T12:10:02;20.20;99.90
10459;DHT22;5277;48.722;8.736;2022-10-26T12:12:35;20.10;99.90
10459;DHT22;5277;48.722;8.736;2022-10-26T12:23:18;20.10;99.90
10459;DHT22;5277;48.722;8.736;2022-10-26T12:25:46;20.10;99.90
10459;DHT22;5277;48.722;8.736;2022-10-26T12:28:38;20.10;99.90
10459;DHT22;5277;48.722;8.736;2022-10-26T12:34:02;20.00;99.90
10459;DHT22;5277;48.722;8.736;2022-10-26T12:39:31;19.80;99.90
10459;DHT22;5277;48.722;8.736;2022-10-26T12:44:37;19.80;99.90
10459;DHT22;5277;48.722;8.736;2022-10-26T13:09:28;18.40;99.90
10459;DHT22;5277;48.722;8.736;2022-10-26T13:11:55;18.30;99.90
10459;DHT22;5277;48.722;8.736;2022-10-26T13:15:03;18.30;99.90
10459;DHT22;5277;48.722;8.736;2022-10-26T13:17:29;18.30;99.90
10459;DHT22;5277;48.722;8.736;2022-10-26T13:20:00;18.30;99.90
10459;DHT22;5277;48.722;8.736;2022-10-26T13:22:27;18.20;99.90
10459;DHT22;5277;48.722;8.736;2022-10-26T13:25:02;18.20;99.90
10459;DHT22;5277;48.722;8.736;2022-10-26T13:32:40;18.20;99.90
10459;DHT22;5277;48.722;8.736;2022-10-26T13:35:16;18.20;99.90
10459;DHT22;5277;48.722;8.736;2022-10-26T13:37:45;18.10;99.90
10459;DHT22;5277;48.722;8.736;2022-10-26T13:40:26;18.10;99.90
10459;DHT22;5277;48.722;8.736;2022-10-26T13:42:57;18.10;99.90
10459;DHT22;5277;48.722;8.736;2022-10-26T13:48:37;18.00;99.90
10459;DHT22;5277;48.722;8.736;2022-10-26T13:51:24;18.10;99.90
10459;DHT22;5277;48.722;8.736;2022-10-26T13:54:01;18.00;99.90
10459;DHT22;5277;48.722;8.736;2022-10-26T13:56:33;18.00;99.90
10459;DHT22;5277;48.722;8.736;2022-10-26T13:59:09;18.10;99.90
10459;DHT22;5277;48.722;8.736;2022-10-26T14:01:36;18.10;99.90
10459;DHT22;5277;48.722;8.736;2022-10-26T14:04:26;18.00;99.90
10459;DHT22;5277;48.722;8.736;2022-10-26T14:06:52;18.10;99.90
10459;DHT22;5277;48.722;8.736;2022-10-26T14:09:20;18.20;99.90
10459;DHT22;5277;48.722;8.736;2022-10-26T14:11:58;18.30;99.90
10459;DHT22;5277;48.722;8.736;2022-10-26T14:16:52;18.40;99.90
10459;DHT22;5277;48.722;8.736;2022-10-26T14:19:34;18.40;99.90
10459;DHT22;5277;48.722;8.736;2022-10-26T14:22:01;18.50;99.90
10459;DHT22;5277;48.722;8.736;2022-10-26T14:24:35;18.40;99.90
10459;DHT22;5277;48.722;8.736;2022-10-26T14:27:17;18.40;99.90
10459;DHT22;5277;48.722;8.736;2022-10-26T14:29:43;18.40;99.90
10459;DHT22;5277;48.722;8.736;2022-10-26T14:32:27;18.40;99.90
10459;DHT22;5277;48.722;8.736;2022-10-26T14:34:53;18.40;99.90
10459;DHT22;5277;48.722;8.736;2022-10-26T14:37:40;18.50;99.90
10459;DHT22;5277;48.722;8.736;2022-10-26T14:40:15;18.50;99.90
10459;DHT22;5277;48.722;8.736;2022-10-26T14:42:42;18.60;99.90
10459;DHT22;5277;48.722;8.736;2022-10-26T14:45:27;18.60;99.90
10459;DHT22;5277;48.722;8.736;2022-10-26T14:47:54;18.60;99.90
10459;DHT22;5277;48.722;8.736;2022-10-26T14:50:22;18.60;99.90
10459;DHT22;5277;48.722;8.736;2022-10-26T14:52:57;18.60;99.90
10459;DHT22;5277;48.722;8.736;2022-10-26T14:55:25;18.50;99.90
10459;DHT22;5277;48.722;8.736;2022-10-26T14:58:05;18.50;99.90
10459;DHT22;5277;48.722;8.736;2022-10-26T15:00:32;18.50;99.90
10459;DHT22;5277;48.722;8.736;2022-10-26T15:02:58;18.50;99.90
10459;DHT22;5277;48.722;8.736;2022-10-26T15:05:29;18.50;99.90
10459;DHT22;5277;48.722;8.736;2022-10-26T15:07:58;18.50;99.90
10459;DHT22;5277;48.722;8.736;2022-10-26T15:13:27;18.30;99.90
10459;DHT22;5277;48.722;8.736;2022-10-26T15:16:14;18.20;99.90
10459;DHT22;5277;48.722;8.736;2022-10-26T15:18:41;18.20;99.90
10459;DHT22;5277;48.722;8.736;2022-10-26T15:21:31;18.10;99.90
10459;DHT22;5277;48.722;8.736;2022-10-26T15:23:58;18.10;99.90
10459;DHT22;5277;48.722;8.736;2022-10-26T15:26:25;17.90;99.90
10459;DHT22;5277;48.722;8.736;2022-10-26T15:28:52;17.90;99.90
10459;DHT22;5277;48.722;8.736;2022-10-26T15:36:17;17.70;99.90
10459;DHT22;5277;48.722;8.736;2022-10-26T15:38:44;17.60;99.90
10459;DHT22;5277;48.722;8.736;2022-10-26T15:41:34;17.60;99.90
10459;DHT22;5277;48.722;8.736;2022-10-26T15:44:03;17.60;99.90
10459;DHT22;5277;48.722;8.736;2022-10-26T15:46:35;17.50;99.90
10459;DHT22;5277;48.722;8.736;2022-10-26T15:49:03;17.40;99.90
10459;DHT22;5277;48.722;8.736;2022-10-26T15:51:29;17.40;99.90
10459;DHT22;5277;48.722;8.736;2022-10-26T15:54:01;17.30;99.90
10459;DHT22;5277;48.722;8.736;2022-10-26T15:56:27;17.20;99.90
10459;DHT22;5277;48.722;8.736;2022-10-26T15:58:56;17.20;99.90
10459;DHT22;5277;48.722;8.736;2022-10-26T16:01:26;17.10;99.90
10459;DHT22;5277;48.722;8.736;2022-10-26T16:03:52;17.00;99.90
10459;DHT22;5277;48.722;8.736;2022-10-26T16:06:24;16.90;99.90
10459;DHT22;5277;48.722;8.736;2022-10-26T16:08:52;16.90;99.90
10459;DHT22;5277;48.722;8.736;2022-10-26T16:11:20;16.80;99.90
10459;DHT22;5277;48.722;8.736;2022-10-26T16:13:46;16.70;99.90
10459;DHT22;5277;48.722;8.736;2022-10-26T16:16:14;16.70;99.90
10459;DHT22;5277;48.722;8.736;2022-10-26T16:18:40;16.70;99.90
10459;DHT22;5277;48.722;8.736;2022-10-26T16:21:14;16.60;99.90
10459;DHT22;5277;48.722;8.736;2022-10-26T16:23:40;16.60;99.90
10459;DHT22;5277;48.722;8.736;2022-10-26T16:26:06;16.50;99.90
10459;DHT22;5277;48.722;8.736;2022-10-26T16:28:33;16.50;99.90
10459;DHT22;5277;48.722;8.736;2022-10-26T16:31:00;16.40;99.90
10459;DHT22;5277;48.722;8.736;2022-10-26T16:33:25;16.40;99.90
10459;DHT22;5277;48.722;8.736;2022-10-26T16:35:58;16.30;99.90
10459;DHT22;5277;48.722;8.736;2022-10-26T16:38:25;16.20;99.90
10459;DHT22;5277;48.722;8.736;2022-10-26T16:43:26;16.10;99.90
10459;DHT22;5277;48.722;8.736;2022-10-26T16:45:52;16.00;99.90
10459;DHT22;5277;48.722;8.736;2022-10-26T16:48:17;16.00;99.90
10459;DHT22;5277;48.722;8.736;2022-10-26T16:50:43;16.00;99.90
10459;DHT22;5277;48.722;8.736;2022-10-26T16:53:15;16.00;99.90
10459;DHT22;5277;48.722;8.736;2022-10-26T16:55:40;15.90;99.90
10459;DHT22;5277;48.722;8.736;2022-10-26T16:58:06;15.90;99.90
10459;DHT22;5277;48.722;8.736;2022-10-26T17:00:34;15.80;99.90
10459;DHT22;5277;48.722;8.736;2022-10-26T17:03:00;15.80;99.90
10459;DHT22;5277;48.722;8.736;2022-10-26T17:05:30;15.80;99.90
10459;DHT22;5277;48.722;8.736;2022-10-26T17:07:55;15.70;99.90
10459;DHT22;5277;48.722;8.736;2022-10-26T17:10:21;15.70;99.90
10459;DHT22;5277;48.722;8.736;2022-10-26T17:12:47;15.60;99.90
10459;DHT22;5277;48.722;8.736;2022-10-26T17:15:13;15.60;99.90
10459;DHT22;5277;48.722;8.736;2022-10-26T17:17:39;15.60;99.90
10459;DHT22;5277;48.722;8.736;2022-10-26T17:20:05;15.60;99.90
10459;DHT22;5277;48.722;8.736;2022-10-26T17:22:31;15.50;99.90
10459;DHT22;5277;48.722;8.736;2022-10-26T17:24:57;15.40;99.90
10459;DHT22;5277;48.722;8.736;2022-10-26T17:27:23;15.40;99.90
10459;DHT22;5277;48.722;8.736;2022-10-26T17:29:51;15.40;99.90
10459;DHT22;5277;48.722;8.736;2022-10-26T17:32:16;15.30;99.90
10459;DHT22;5277;48.722;8.736;2022-10-26T17:34:42;15.40;99.90
10459;DHT22;5277;48.722;8.736;2022-10-26T17:40:31;15.30;99.90
10459;DHT22;5277;48.722;8.736;2022-10-26T17:42:58;15.20;99.90
10459;DHT22;5277;48.722;8.736;2022-10-26T17:45:24;15.20;99.90
10459;DHT22;5277;48.722;8.736;2022-10-26T17:47:50;15.10;99.90
10459;DHT22;5277;48.722;8.736;2022-10-26T17:50:16;15.10;99.90
10459;DHT22;5277;48.722;8.736;2022-10-26T17:52:41;15.00;99.90
10459;DHT22;5277;48.722;8.736;2022-10-26T17:55:13;15.00;99.90
10459;DHT22;5277;48.722;8.736;2022-10-26T17:57:39;15.00;99.90
10459;DHT22;5277;48.722;8.736;2022-10-26T18:00:05;15.00;99.90
10459;DHT22;5277;48.722;8.736;2022-10-26T18:02:31;15.00;99.90
10459;DHT22;5277;48.722;8.736;2022-10-26T18:05:02;14.90;99.90
10459;DHT22;5277;48.722;8.736;2022-10-26T18:07:29;14.90;99.90
10459;DHT22;5277;48.722;8.736;2022-10-26T18:09:57;14.80;99.90
10459;DHT22;5277;48.722;8.736;2022-10-26T18:12:23;14.80;99.90
10459;DHT22;5277;48.722;8.736;2022-10-26T18:14:49;14.80;99.90
10459;DHT22;5277;48.722;8.736;2022-10-26T18:17:14;14.80;99.90
10459;DHT22;5277;48.722;8.736;2022-10-26T18:19:40;14.80;99.90
10459;DHT22;5277;48.722;8.736;2022-10-26T18:22:05;14.70;99.90
10459;DHT22;5277;48.722;8.736;2022-10-26T18:24:31;14.70;99.90
10459;DHT22;5277;48.722;8.736;2022-10-26T18:26:57;14.70;99.90
10459;DHT22;5277;48.722;8.736;2022-10-26T18:29:22;14.60;99.90